Altamont, Missouri
Current Conditions -  °F | °C
As of 1:15 AM on Friday 28 Nov 2014 (Local Time) from KGPH Reporting Station
Clear Clear  
Wind Chill: -4°   Ceiling: Unl
Heat Index: -1°   Visibility: 10mi
Dew Point: -4°   Wind: 5mph
Humidity: 80%   Direction: 130°SE
Pressure: 30.23"   Gusts: NA
Location:  39.89°N, 94.09°W
Report Text: KGPH 280715Z AUTO 13004KT 10SM CLR M01/M04 A3023 RMK AO2
Loading
Personal Weather Stations






























Interactive Weather Map New forecast layout! Learn more

10-Day Weather Forecast

Advertisements
Track Severe Weather on mobile